Time;durP1;ratioP1;P1;durP2;ratioP2;P2;SDS_P1;SDS_P2;PMS_P1;PMS_P2;Temp;Humidity;BMP_temperature;BMP_pressure;BME280_temperature;BME280_humidity;BME280_pressure;Samples;Min_cycle;Max_cycle;Signal;HPM_P1;HPM_P2
2022/12/03 00:02:54;;;;;;;9.65;2.83;;;;;;;;;;10462794;28;20079;-57
2022/12/03 00:07:55;;;;;;;12.10;2.63;;;;;;;;;;10462715;28;20033;-55
2022/12/03 00:12:56;;;;;;;7.65;2.72;;;;;;;;;;10469364;28;20029;-54
2022/12/03 00:17:56;;;;;;;8.88;3.15;;;;;;;;;;10473202;28;20017;-53
2022/12/03 00:22:57;;;;;;;11.35;3.25;;;;;;;;;;10455036;28;20087;-52
2022/12/03 00:27:58;;;;;;;16.40;3.30;;;;;;;;;;10468410;28;20407;-56
2022/12/03 00:32:58;;;;;;;5.57;2.60;;;;;;;;;;10442764;28;20037;-51
2022/12/03 00:37:59;;;;;;;9.57;3.05;;;;;;;;;;10445426;28;20412;-51
2022/12/03 00:43:01;;;;;;;6.45;3.10;;;;;;;;;;10439555;28;20051;-52
2022/12/03 00:48:01;;;;;;;10.63;2.80;;;;;;;;;;10440142;28;20507;-53
2022/12/03 00:53:02;;;;;;;6.68;2.40;;;;;;;;;;10440466;28;20659;-54
2022/12/03 00:58:02;;;;;;;3.80;2.35;;;;;;;;;;10451815;28;20032;-54
2022/12/03 01:03:03;;;;;;;6.15;2.70;;;;;;;;;;10449081;28;20487;-54
2022/12/03 01:08:04;;;;;;;5.60;2.63;;;;;;;;;;10433328;28;20507;-55
2022/12/03 01:13:05;;;;;;;4.00;2.47;;;;;;;;;;10427806;28;20392;-53
2022/12/03 01:18:05;;;;;;;3.80;2.72;;;;;;;;;;10445812;28;20030;-54
2022/12/03 01:23:06;;;;;;;6.15;2.35;;;;;;;;;;10443610;28;20369;-54
2022/12/03 01:28:06;;;;;;;6.30;2.28;;;;;;;;;;10451573;28;20045;-54
2022/12/03 01:33:07;;;;;;;5.25;2.92;;;;;;;;;;10448134;28;20037;-55
2022/12/03 01:38:07;;;;;;;6.40;2.97;;;;;;;;;;10451887;28;20032;-55
2022/12/03 01:43:08;;;;;;;7.68;2.38;;;;;;;;;;10443051;28;20037;-56
2022/12/03 01:48:15;;;;;;;5.53;2.72;;;;;;;;;;10438442;28;20036;-56
2022/12/03 01:53:20;;;;;;;5.20;2.58;;;;;;;;;;10419704;28;20029;-54
2022/12/03 01:58:25;;;;;;;7.50;2.67;;;;;;;;;;10430277;28;20116;-54
2022/12/03 02:03:27;;;;;;;5.80;2.63;;;;;;;;;;10407826;28;20033;-54
2022/12/03 02:08:36;;;;;;;6.53;2.40;;;;;;;;;;10449638;28;20029;-54
2022/12/03 02:13:37;;;;;;;7.68;2.58;;;;;;;;;;10432037;28;20695;-55
2022/12/03 02:18:37;;;;;;;6.05;2.72;;;;;;;;;;10424318;28;20021;-55
2022/12/03 02:24:13;;;;;;;6.20;2.72;;;;;;;;;;10464483;28;20032;-52
2022/12/03 02:29:13;;;;;;;3.90;2.60;;;;;;;;;;10456092;28;20061;-54
2022/12/03 02:34:52;;;;;;;4.05;2.20;;;;;;;;;;10432024;28;20028;-52
2022/12/03 02:39:57;;;;;;;5.35;2.13;;;;;;;;;;10269924;28;20027;-53
2022/12/03 02:45:01;;;;;;;4.65;2.75;;;;;;;;;;10243361;28;20313;-53
2022/12/03 02:50:02;;;;;;;3.90;2.20;;;;;;;;;;10249515;28;20242;-54
2022/12/03 02:55:05;;;;;;;5.07;2.60;;;;;;;;;;10245045;28;20043;-55
2022/12/03 03:00:09;;;;;;;5.57;2.67;;;;;;;;;;10255124;28;20093;-54
2022/12/03 03:05:11;;;;;;;4.80;2.50;;;;;;;;;;10242089;28;20055;-51
2022/12/03 03:10:15;;;;;;;5.82;2.72;;;;;;;;;;10395173;28;20040;-53
2022/12/03 03:15:16;;;;;;;3.20;2.15;;;;;;;;;;10447211;28;20078;-52
2022/12/03 03:20:17;;;;;;;2.95;2.30;;;;;;;;;;10437348;28;20029;-51
2022/12/03 03:25:20;;;;;;;6.90;2.67;;;;;;;;;;10422692;28;20056;-50
2022/12/03 03:30:20;;;;;;;9.38;2.35;;;;;;;;;;10439692;28;20090;-52
2022/12/03 03:35:23;;;;;;;3.88;2.83;;;;;;;;;;10479552;28;20087;-51
2022/12/03 03:40:25;;;;;;;4.68;2.13;;;;;;;;;;10469483;28;20447;-51
2022/12/03 03:45:25;;;;;;;5.72;2.40;;;;;;;;;;10456470;28;20476;-52
2022/12/03 03:50:28;;;;;;;2.88;2.00;;;;;;;;;;10452743;28;20041;-54
2022/12/03 03:55:30;;;;;;;5.15;2.55;;;;;;;;;;10452363;28;20044;-56
2022/12/03 04:00:31;;;;;;;3.78;2.55;;;;;;;;;;10477050;28;20024;-56
2022/12/03 04:05:31;;;;;;;3.80;2.20;;;;;;;;;;10452704;28;20061;-55
2022/12/03 04:15:51;;;;;;;3.63;2.42;;;;;;;;;;10473053;28;20029;-55
2022/12/03 04:22:38;;;;;;;4.80;2.22;;;;;;;;;;10470196;28;20017;-54
2022/12/03 04:36:50;;;;;;;;;;;;;;;;;;10469356;28;19972;-54
2022/12/03 04:41:51;;;;;;;3.47;2.00;;;;;;;;;;10452622;28;19998;-54
2022/12/03 04:46:51;;;;;;;2.95;2.25;;;;;;;;;;10482247;28;20108;-53
2022/12/03 04:51:52;;;;;;;3.20;2.17;;;;;;;;;;10481209;28;20502;-56
2022/12/03 04:56:53;;;;;;;3.70;1.73;;;;;;;;;;10459719;28;20025;-54
2022/12/03 05:01:53;;;;;;;2.50;2.00;;;;;;;;;;10471303;28;20116;-54
2022/12/03 05:06:54;;;;;;;3.03;1.83;;;;;;;;;;10483024;28;20083;-55
2022/12/03 05:11:54;;;;;;;3.70;2.30;;;;;;;;;;10478008;28;20035;-54
2022/12/03 05:16:55;;;;;;;3.85;2.13;;;;;;;;;;10476610;28;20035;-54
2022/12/03 05:21:55;;;;;;;3.33;1.92;;;;;;;;;;10471089;28;20542;-55
2022/12/03 05:26:56;;;;;;;2.50;1.85;;;;;;;;;;10458018;28;20477;-58
2022/12/03 05:31:56;;;;;;;2.53;1.75;;;;;;;;;;10478733;28;20460;-57
2022/12/03 05:36:57;;;;;;;3.53;2.03;;;;;;;;;;10451153;28;20478;-56
2022/12/03 05:47:16;;;;;;;3.78;1.95;;;;;;;;;;10449602;28;20029;-55
2022/12/03 05:52:17;;;;;;;2.58;1.67;;;;;;;;;;10482660;28;20033;-55
2022/12/03 05:57:18;;;;;;;3.42;2.20;;;;;;;;;;10458124;28;20032;-53
2022/12/03 06:02:18;;;;;;;2.95;1.90;;;;;;;;;;10453796;28;20030;-57
2022/12/03 06:07:20;;;;;;;2.17;1.95;;;;;;;;;;10452814;28;20060;-58
2022/12/03 06:12:20;;;;;;;2.05;1.80;;;;;;;;;;10461644;28;20059;-53
2022/12/03 06:17:21;;;;;;;2.40;2.08;;;;;;;;;;10452550;28;20021;-54
2022/12/03 06:22:21;;;;;;;2.50;1.60;;;;;;;;;;10459881;28;20021;-53
2022/12/03 06:27:22;;;;;;;2.60;2.00;;;;;;;;;;10458083;28;20049;-55
2022/12/03 06:32:22;;;;;;;2.70;1.90;;;;;;;;;;10475054;28;20036;-55
2022/12/03 06:37:23;;;;;;;2.15;1.90;;;;;;;;;;10462128;28;20020;-53
2022/12/03 06:42:24;;;;;;;2.67;1.88;;;;;;;;;;10454978;28;20028;-58
2022/12/03 06:47:24;;;;;;;2.20;2.00;;;;;;;;;;10447475;28;20029;-57
2022/12/03 06:52:25;;;;;;;1.95;1.77;;;;;;;;;;10445255;28;20430;-58
2022/12/03 06:57:26;;;;;;;12.32;2.15;;;;;;;;;;10440221;28;20057;-58
2022/12/03 07:02:27;;;;;;;4.40;2.30;;;;;;;;;;10451549;28;20025;-58
2022/12/03 07:07:28;;;;;;;3.35;2.33;;;;;;;;;;10434279;28;20045;-57
2022/12/03 07:12:29;;;;;;;4.45;2.08;;;;;;;;;;10438295;28;20037;-58
2022/12/03 07:17:29;;;;;;;5.15;2.67;;;;;;;;;;10451976;28;20028;-58
2022/12/03 07:22:30;;;;;;;6.97;4.05;;;;;;;;;;10464427;28;20024;-57
2022/12/03 07:27:30;;;;;;;5.40;4.60;;;;;;;;;;10458758;28;20040;-57
2022/12/03 07:32:31;;;;;;;23.23;5.10;;;;;;;;;;10448179;28;20029;-57
2022/12/03 07:37:33;;;;;;;14.60;4.78;;;;;;;;;;10452772;28;20028;-57
2022/12/03 07:42:34;;;;;;;10.65;4.50;;;;;;;;;;10454715;28;20111;-55
2022/12/03 07:47:34;;;;;;;10.07;3.80;;;;;;;;;;10452554;28;20036;-56
2022/12/03 07:52:35;;;;;;;5.63;3.25;;;;;;;;;;10451083;28;20112;-57
2022/12/03 07:57:35;;;;;;;6.95;3.30;;;;;;;;;;10454377;28;20099;-58
2022/12/03 08:02:36;;;;;;;3.97;3.10;;;;;;;;;;10441334;28;20033;-56
2022/12/03 08:07:36;;;;;;;4.95;3.50;;;;;;;;;;10479985;28;20465;-58
2022/12/03 08:12:41;;;;;;;10.85;3.70;;;;;;;;;;10470981;28;20032;-58
2022/12/03 08:17:44;;;;;;;6.05;3.47;;;;;;;;;;10449056;28;20032;-59
2022/12/03 08:22:48;;;;;;;7.07;3.95;;;;;;;;;;10448647;28;20115;-58
2022/12/03 08:27:52;;;;;;;7.13;3.80;;;;;;;;;;10469678;28;20056;-59
2022/12/03 08:32:52;;;;;;;11.90;4.95;;;;;;;;;;10486357;28;20475;-58
2022/12/03 08:38:11;;;;;;;5.50;4.43;;;;;;;;;;10491433;28;20021;-57
2022/12/03 08:43:23;;;;;;;;;;;;;;;;;;10468470;28;20028;-58
2022/12/03 08:48:36;;;;;;;7.45;5.15;;;;;;;;;;10467490;28;19939;-58
2022/12/03 08:53:42;;;;;;;19.73;5.30;;;;;;;;;;10483195;28;20471;-55
2022/12/03 08:58:45;;;;;;;13.95;4.97;;;;;;;;;;10469890;28;20539;-58
2022/12/03 09:03:54;;;;;;;13.95;5.45;;;;;;;;;;10467509;28;20085;-57
2022/12/03 09:08:54;;;;;;;14.50;5.60;;;;;;;;;;10484728;28;20141;-58
2022/12/03 09:13:55;;;;;;;8.88;5.80;;;;;;;;;;10470287;28;20192;-58
2022/12/03 09:18:55;;;;;;;8.60;5.18;;;;;;;;;;10484193;28;20099;-57
2022/12/03 09:23:56;;;;;;;14.57;4.82;;;;;;;;;;10482103;28;20028;-57
2022/12/03 09:28:56;;;;;;;7.05;4.70;;;;;;;;;;10452209;28;20516;-57
2022/12/03 09:33:57;;;;;;;11.02;4.63;;;;;;;;;;10454162;28;20138;-57
2022/12/03 09:38:58;;;;;;;10.93;4.78;;;;;;;;;;10449869;28;20037;-58
2022/12/03 09:43:58;;;;;;;19.70;4.80;;;;;;;;;;10465358;28;20032;-57
2022/12/03 09:49:00;;;;;;;8.32;4.43;;;;;;;;;;10445517;28;20064;-56
2022/12/03 09:54:04;;;;;;;7.07;4.35;;;;;;;;;;10450256;28;20441;-57
2022/12/03 09:59:13;;;;;;;10.55;4.65;;;;;;;;;;10469473;28;20573;-57
2022/12/03 10:04:14;;;;;;;8.70;4.35;;;;;;;;;;10452014;28;20025;-57
2022/12/03 10:09:25;;;;;;;9.52;4.70;;;;;;;;;;10446340;28;20476;-57
2022/12/03 10:14:26;;;;;;;9.57;4.32;;;;;;;;;;10479919;28;20472;-57
2022/12/03 10:19:31;;;;;;;20.70;4.80;;;;;;;;;;10447217;28;20036;-57
2022/12/03 10:24:35;;;;;;;6.10;4.18;;;;;;;;;;10471781;28;20502;-57
2022/12/03 10:29:36;;;;;;;14.95;4.70;;;;;;;;;;10468328;28;20522;-58
2022/12/03 10:34:39;;;;;;;16.92;4.40;;;;;;;;;;10451920;28;20079;-58
2022/12/03 10:39:59;;;;;;;6.82;4.10;;;;;;;;;;10450866;28;20464;-57
2022/12/03 10:45:18;;;;;;;9.75;4.22;;;;;;;;;;10441955;28;20484;-57
2022/12/03 10:50:19;;;;;;;9.15;4.05;;;;;;;;;;10474608;28;20078;-58
2022/12/03 10:55:19;;;;;;;8.43;4.20;;;;;;;;;;10483561;28;20035;-57
2022/12/03 11:00:21;;;;;;;13.82;4.70;;;;;;;;;;10465094;28;20043;-58
2022/12/03 11:05:26;;;;;;;17.65;4.55;;;;;;;;;;10484027;28;20040;-57
2022/12/03 11:10:26;;;;;;;10.57;3.97;;;;;;;;;;10461019;28;20040;-57
2022/12/03 11:15:43;;;;;;;9.77;3.90;;;;;;;;;;10465413;28;20388;-57
2022/12/03 11:20:46;;;;;;;12.63;4.32;;;;;;;;;;10480287;28;20039;-58
2022/12/03 11:25:49;;;;;;;11.02;4.30;;;;;;;;;;10457307;28;20084;-58
2022/12/03 11:30:49;;;;;;;8.35;3.70;;;;;;;;;;10467552;28;20024;-57
2022/12/03 11:36:18;;;;;;;8.05;3.80;;;;;;;;;;10481059;28;20021;-58
2022/12/03 11:41:32;;;;;;;8.20;3.60;;;;;;;;;;10463676;28;20063;-58
2022/12/03 11:46:35;;;;;;;10.02;3.65;;;;;;;;;;10487682;28;20028;-57
2022/12/03 11:51:36;;;;;;;10.43;4.20;;;;;;;;;;10474519;28;20271;-57
2022/12/03 11:56:44;;;;;;;7.78;3.58;;;;;;;;;;10474499;28;20648;-58
2022/12/03 12:01:46;;;;;;;4.80;3.25;;;;;;;;;;10481578;28;20077;-57
2022/12/03 12:06:46;;;;;;;11.05;3.47;;;;;;;;;;10477429;28;20111;-58
2022/12/03 12:11:47;;;;;;;10.45;3.70;;;;;;;;;;10493917;28;20446;-58
2022/12/03 12:16:50;;;;;;;6.10;3.65;;;;;;;;;;10479613;28;20372;-57
2022/12/03 12:21:51;;;;;;;8.68;3.78;;;;;;;;;;10482718;28;20490;-57
2022/12/03 12:26:52;;;;;;;11.93;4.07;;;;;;;;;;10452488;28;20384;-57
2022/12/03 12:32:24;;;;;;;8.15;3.90;;;;;;;;;;10470716;28;20067;-57
2022/12/03 12:37:35;;;;;;;7.63;3.60;;;;;;;;;;10431448;28;20037;-57
2022/12/03 12:42:41;;;;;;;11.77;3.70;;;;;;;;;;10450612;28;20095;-58
2022/12/03 12:48:09;;;;;;;13.38;4.05;;;;;;;;;;10491929;28;20067;-59
2022/12/03 12:53:32;;;;;;;11.13;3.28;;;;;;;;;;10452946;28;20040;-57
2022/12/03 12:58:33;;;;;;;5.97;3.25;;;;;;;;;;10450719;28;20119;-58
2022/12/03 13:03:37;;;;;;;9.00;3.67;;;;;;;;;;10460197;28;20033;-57
2022/12/03 13:08:45;;;;;;;4.88;3.03;;;;;;;;;;10474038;28;20033;-57
2022/12/03 13:13:45;;;;;;;5.15;2.97;;;;;;;;;;10484052;28;20040;-57
2022/12/03 13:18:55;;;;;;;4.70;3.00;;;;;;;;;;10483200;28;20016;-60
2022/12/03 13:23:56;;;;;;;6.88;3.05;;;;;;;;;;10479964;28;20191;-57
2022/12/03 13:28:58;;;;;;;5.70;2.92;;;;;;;;;;10468174;28;20045;-58
2022/12/03 13:34:00;;;;;;;5.05;3.30;;;;;;;;;;10448982;28;20162;-58
2022/12/03 13:39:20;;;;;;;4.72;2.97;;;;;;;;;;10443773;28;20399;-57
2022/12/03 13:44:20;;;;;;;6.70;3.85;;;;;;;;;;10447420;28;20020;-57
2022/12/03 13:49:22;;;;;;;4.18;3.22;;;;;;;;;;10468381;28;20059;-58
2022/12/03 13:54:29;;;;;;;5.32;3.08;;;;;;;;;;10448776;28;20066;-58
2022/12/03 13:59:29;;;;;;;6.28;3.58;;;;;;;;;;10458216;28;20364;-58
2022/12/03 14:04:30;;;;;;;6.50;3.03;;;;;;;;;;10489257;28;20016;-58
2022/12/03 14:09:30;;;;;;;5.40;3.47;;;;;;;;;;10457983;28;20041;-58
2022/12/03 14:14:31;;;;;;;5.70;3.67;;;;;;;;;;10477483;28;20165;-57
2022/12/03 14:19:31;;;;;;;4.15;3.38;;;;;;;;;;10473276;28;20396;-58
2022/12/03 14:24:32;;;;;;;6.53;3.35;;;;;;;;;;10460854;28;20399;-57
2022/12/03 14:29:33;;;;;;;3.97;3.03;;;;;;;;;;10455245;28;20431;-57
2022/12/03 14:34:33;;;;;;;7.68;3.28;;;;;;;;;;10475576;28;20029;-57
2022/12/03 14:39:34;;;;;;;4.65;3.35;;;;;;;;;;10440547;28;20276;-57
2022/12/03 14:44:34;;;;;;;6.50;3.35;;;;;;;;;;10481798;28;20044;-57
2022/12/03 14:49:35;;;;;;;4.93;3.47;;;;;;;;;;10478617;28;20020;-58
2022/12/03 14:54:37;;;;;;;10.93;3.67;;;;;;;;;;10452610;28;20036;-57
2022/12/03 14:59:42;;;;;;;7.25;3.00;;;;;;;;;;10461097;28;20056;-58
2022/12/03 15:04:43;;;;;;;8.27;3.67;;;;;;;;;;10458993;28;20168;-58
2022/12/03 15:09:43;;;;;;;5.07;2.92;;;;;;;;;;10477108;28;20193;-58
2022/12/03 15:14:44;;;;;;;6.85;3.45;;;;;;;;;;10450097;28;20086;-57
2022/12/03 15:19:45;;;;;;;6.80;3.38;;;;;;;;;;10445048;28;20041;-57
2022/12/03 15:24:45;;;;;;;6.00;3.40;;;;;;;;;;10460537;28;20036;-58
2022/12/03 15:29:46;;;;;;;4.95;3.45;;;;;;;;;;10460730;28;20036;-59
2022/12/03 15:34:46;;;;;;;5.75;3.88;;;;;;;;;;10457137;28;20029;-58
2022/12/03 15:39:47;;;;;;;5.72;3.10;;;;;;;;;;10443770;28;20094;-58
2022/12/03 15:44:48;;;;;;;4.78;3.33;;;;;;;;;;10447566;28;20029;-58
2022/12/03 15:49:48;;;;;;;3.75;2.80;;;;;;;;;;10451899;28;20086;-58
2022/12/03 15:54:49;;;;;;;9.07;3.78;;;;;;;;;;10445001;28;20040;-59
2022/12/03 15:59:49;;;;;;;4.30;3.30;;;;;;;;;;10444710;28;20037;-58
2022/12/03 16:04:50;;;;;;;6.22;2.85;;;;;;;;;;10452853;28;20115;-58
2022/12/03 16:09:51;;;;;;;11.52;3.28;;;;;;;;;;10447764;28;20460;-59
2022/12/03 16:14:51;;;;;;;5.68;3.17;;;;;;;;;;10448178;28;20412;-59
2022/12/03 16:19:52;;;;;;;6.75;3.20;;;;;;;;;;10439065;28;20095;-57
2022/12/03 16:24:52;;;;;;;4.65;3.35;;;;;;;;;;10448853;28;20033;-58
2022/12/03 16:29:54;;;;;;;5.65;3.17;;;;;;;;;;10460969;28;20033;-58
2022/12/03 16:34:55;;;;;;;4.00;3.15;;;;;;;;;;10460176;28;20033;-59
2022/12/03 16:39:56;;;;;;;14.70;3.92;;;;;;;;;;10427410;28;20469;-58
2022/12/03 16:49:57;;;;;;;8.88;3.63;;;;;;;;;;10465479;28;20040;-58
2022/12/03 16:54:57;;;;;;;10.63;3.63;;;;;;;;;;10487194;28;20039;-58
2022/12/03 16:59:58;;;;;;;10.05;3.35;;;;;;;;;;10475647;28;20024;-56
2022/12/03 17:04:58;;;;;;;10.85;3.92;;;;;;;;;;10483915;28;20036;-53
2022/12/03 17:09:59;;;;;;;12.63;3.08;;;;;;;;;;10461759;28;20028;-57
2022/12/03 17:15:00;;;;;;;6.68;3.53;;;;;;;;;;10466130;28;20048;-58
2022/12/03 17:20:00;;;;;;;10.13;3.20;;;;;;;;;;10449784;28;20369;-57
2022/12/03 17:25:01;;;;;;;7.32;3.45;;;;;;;;;;10455369;28;20033;-55
2022/12/03 17:30:04;;;;;;;13.30;3.40;;;;;;;;;;10448962;28;20033;-57
2022/12/03 17:35:05;;;;;;;4.28;3.17;;;;;;;;;;10451306;28;20507;-55
2022/12/03 17:40:09;;;;;;;8.32;3.35;;;;;;;;;;10444971;28;20032;-54
2022/12/03 17:45:11;;;;;;;7.90;3.28;;;;;;;;;;10425534;28;20032;-55
2022/12/03 17:50:11;;;;;;;4.22;3.08;;;;;;;;;;10440033;28;20556;-54
2022/12/03 17:55:12;;;;;;;5.22;3.20;;;;;;;;;;10449082;28;20029;-57
2022/12/03 18:00:13;;;;;;;6.53;3.38;;;;;;;;;;10432389;28;20276;-55
2022/12/03 18:05:14;;;;;;;7.47;2.90;;;;;;;;;;10447697;28;20044;-53
2022/12/03 18:10:14;;;;;;;4.57;3.20;;;;;;;;;;10462479;28;20025;-54
2022/12/03 18:15:15;;;;;;;5.63;3.38;;;;;;;;;;10448810;28;20468;-55
2022/12/03 18:20:16;;;;;;;4.63;3.42;;;;;;;;;;10443790;28;20033;-55
2022/12/03 18:25:17;;;;;;;5.45;3.35;;;;;;;;;;10445138;28;20048;-55
2022/12/03 18:30:18;;;;;;;5.28;3.25;;;;;;;;;;10429120;28;20017;-57
2022/12/03 18:35:19;;;;;;;7.32;3.40;;;;;;;;;;10446789;28;20037;-56
2022/12/03 18:40:25;;;;;;;5.25;3.47;;;;;;;;;;10448543;28;20020;-55
2022/12/03 18:45:25;;;;;;;6.53;3.08;;;;;;;;;;10421721;28;20082;-55
2022/12/03 18:50:26;;;;;;;10.15;3.00;;;;;;;;;;10448453;28;20036;-54
2022/12/03 18:55:32;;;;;;;4.95;3.22;;;;;;;;;;10447203;28;20111;-56
2022/12/03 19:00:34;;;;;;;5.18;3.20;;;;;;;;;;10419821;28;20223;-54
2022/12/03 19:05:35;;;;;;;4.47;3.08;;;;;;;;;;10448964;28;20419;-49
2022/12/03 19:10:36;;;;;;;6.88;2.90;;;;;;;;;;10443197;28;20025;-57
2022/12/03 19:15:39;;;;;;;6.78;2.97;;;;;;;;;;10452746;28;20380;-58
2022/12/03 19:20:41;;;;;;;5.38;3.45;;;;;;;;;;10440479;28;20029;-58
2022/12/03 19:25:42;;;;;;;8.98;3.25;;;;;;;;;;10443350;28;20109;-58
2022/12/03 19:30:42;;;;;;;4.45;3.28;;;;;;;;;;10432465;28;20325;-58
2022/12/03 19:35:43;;;;;;;5.80;3.35;;;;;;;;;;10446191;28;20443;-57
2022/12/03 19:40:43;;;;;;;4.20;3.20;;;;;;;;;;10441224;28;20608;-58
2022/12/03 19:45:44;;;;;;;3.20;2.72;;;;;;;;;;10435540;28;20021;-58
2022/12/03 19:50:51;;;;;;;5.18;3.65;;;;;;;;;;10439038;28;20021;-58
2022/12/03 19:55:52;;;;;;;4.95;2.90;;;;;;;;;;10446630;28;20438;-58
2022/12/03 20:00:52;;;;;;;10.40;3.15;;;;;;;;;;10428928;28;20029;-57
2022/12/03 20:05:53;;;;;;;4.63;3.08;;;;;;;;;;10444281;28;20041;-59
2022/12/03 20:10:54;;;;;;;4.47;3.10;;;;;;;;;;10449154;28;20026;-58
2022/12/03 20:15:54;;;;;;;4.72;3.20;;;;;;;;;;10441489;28;20025;-58
2022/12/03 20:21:00;;;;;;;4.65;2.95;;;;;;;;;;10453587;28;20036;-58
2022/12/03 20:26:01;;;;;;;4.63;2.70;;;;;;;;;;10448820;28;20053;-58
2022/12/03 20:31:09;;;;;;;3.42;2.90;;;;;;;;;;10447315;28;20033;-58
2022/12/03 20:36:13;;;;;;;4.07;3.20;;;;;;;;;;10448389;28;20041;-58
2022/12/03 20:41:17;;;;;;;3.83;2.67;;;;;;;;;;10452738;28;20043;-58
2022/12/03 20:46:25;;;;;;;5.20;2.58;;;;;;;;;;10453465;28;20036;-58
2022/12/03 20:51:29;;;;;;;4.30;2.78;;;;;;;;;;10457056;28;20033;-58
2022/12/03 20:56:33;;;;;;;5.43;3.13;;;;;;;;;;10447108;28;20139;-59
2022/12/03 21:01:34;;;;;;;2.90;2.60;;;;;;;;;;10447382;28;20107;-58
2022/12/03 21:06:36;;;;;;;4.00;2.80;;;;;;;;;;10451282;28;20029;-58
2022/12/03 21:11:41;;;;;;;5.10;2.80;;;;;;;;;;10444222;28;20028;-58
2022/12/03 21:16:45;;;;;;;5.07;2.90;;;;;;;;;;10455017;28;20029;-59
2022/12/03 21:21:45;;;;;;;4.68;2.67;;;;;;;;;;10437189;28;20500;-59
2022/12/03 21:26:46;;;;;;;4.38;3.03;;;;;;;;;;10450387;28;20192;-60
2022/12/03 21:31:47;;;;;;;6.18;2.90;;;;;;;;;;10451280;28;20090;-58
2022/12/03 21:36:47;;;;;;;5.95;2.58;;;;;;;;;;10464023;28;20389;-58
2022/12/03 21:41:48;;;;;;;4.65;2.78;;;;;;;;;;10449692;28;20029;-58
2022/12/03 21:46:48;;;;;;;3.40;3.10;;;;;;;;;;10447729;28;20087;-58
2022/12/03 21:51:49;;;;;;;3.55;2.90;;;;;;;;;;10450950;28;20392;-58
2022/12/03 21:56:50;;;;;;;5.22;2.72;;;;;;;;;;10466885;28;20029;-58
2022/12/03 22:01:50;;;;;;;3.42;2.90;;;;;;;;;;10451294;28;20033;-58
2022/12/03 22:06:51;;;;;;;3.50;2.67;;;;;;;;;;10454543;28;20033;-58
2022/12/03 22:11:54;;;;;;;3.60;2.67;;;;;;;;;;10447184;28;20427;-58
2022/12/03 22:16:54;;;;;;;4.43;3.10;;;;;;;;;;10467161;28;20451;-58
2022/12/03 22:21:55;;;;;;;3.70;2.90;;;;;;;;;;10441679;28;20029;-58
2022/12/03 22:26:56;;;;;;;3.20;2.70;;;;;;;;;;10452728;28;20103;-58
2022/12/03 22:31:56;;;;;;;2.72;2.42;;;;;;;;;;10446979;28;20016;-58
2022/12/03 22:36:57;;;;;;;2.47;2.10;;;;;;;;;;10449193;28;20032;-58
2022/12/03 22:41:57;;;;;;;3.35;2.40;;;;;;;;;;10454283;28;20067;-58
2022/12/03 22:46:58;;;;;;;3.85;2.78;;;;;;;;;;10447530;28;20029;-58
2022/12/03 22:51:59;;;;;;;3.75;2.60;;;;;;;;;;10442533;28;20025;-58
2022/12/03 22:56:59;;;;;;;2.90;2.53;;;;;;;;;;10448084;28;20492;-58
2022/12/03 23:02:00;;;;;;;3.08;2.75;;;;;;;;;;10434152;28;20033;-58
2022/12/03 23:07:00;;;;;;;2.88;2.67;;;;;;;;;;10457565;28;20048;-58
2022/12/03 23:12:01;;;;;;;3.75;2.60;;;;;;;;;;10438942;28;20176;-58
2022/12/03 23:17:02;;;;;;;3.45;2.53;;;;;;;;;;10445597;28;20036;-60
2022/12/03 23:22:02;;;;;;;4.63;2.72;;;;;;;;;;10451641;28;20083;-58
2022/12/03 23:27:03;;;;;;;3.17;2.40;;;;;;;;;;10462202;28;20059;-58
2022/12/03 23:32:03;;;;;;;3.22;2.50;;;;;;;;;;10463116;28;20034;-58
2022/12/03 23:37:04;;;;;;;2.55;2.35;;;;;;;;;;10456742;28;20036;-58
2022/12/03 23:42:04;;;;;;;2.78;2.47;;;;;;;;;;10469300;28;20044;-59
2022/12/03 23:47:05;;;;;;;3.08;2.20;;;;;;;;;;10454132;28;20037;-58
2022/12/03 23:52:06;;;;;;;3.08;2.50;;;;;;;;;;10457616;28;20029;-58
2022/12/03 23:57:06;;;;;;;3.08;2.45;;;;;;;;;;10462482;28;20024;-57
